sensor_id;sensor_type;location;lat;lon;timestamp;temperature;humidity
16511;DHT22;8368;48.772;8.754;2024-03-08T00:00:41;1.90;99.90
16511;DHT22;8368;48.772;8.754;2024-03-08T00:03:08;1.80;99.90
16511;DHT22;8368;48.772;8.754;2024-03-08T00:05:35;1.80;99.90
16511;DHT22;8368;48.772;8.754;2024-03-08T00:08:01;1.70;99.90
16511;DHT22;8368;48.772;8.754;2024-03-08T00:10:27;1.70;99.90
16511;DHT22;8368;48.772;8.754;2024-03-08T00:12:54;1.70;99.90
16511;DHT22;8368;48.772;8.754;2024-03-08T00:15:20;1.80;99.90
16511;DHT22;8368;48.772;8.754;2024-03-08T00:17:48;1.80;99.90
16511;DHT22;8368;48.772;8.754;2024-03-08T00:20:14;1.80;99.90
16511;DHT22;8368;48.772;8.754;2024-03-08T00:22:40;1.70;99.90
16511;DHT22;8368;48.772;8.754;2024-03-08T00:25:07;1.70;99.90
16511;DHT22;8368;48.772;8.754;2024-03-08T00:27:36;1.70;99.90
16511;DHT22;8368;48.772;8.754;2024-03-08T00:30:02;1.70;99.90
16511;DHT22;8368;48.772;8.754;2024-03-08T00:32:27;1.70;99.90
16511;DHT22;8368;48.772;8.754;2024-03-08T00:34:56;1.60;99.90
16511;DHT22;8368;48.772;8.754;2024-03-08T00:37:22;1.60;99.90
16511;DHT22;8368;48.772;8.754;2024-03-08T00:39:48;1.50;99.90
16511;DHT22;8368;48.772;8.754;2024-03-08T00:42:20;1.50;99.90
16511;DHT22;8368;48.772;8.754;2024-03-08T00:44:47;1.50;99.90
16511;DHT22;8368;48.772;8.754;2024-03-08T00:47:16;1.40;99.90
16511;DHT22;8368;48.772;8.754;2024-03-08T00:49:42;1.30;99.90
16511;DHT22;8368;48.772;8.754;2024-03-08T00:52:08;1.30;99.90
16511;DHT22;8368;48.772;8.754;2024-03-08T00:54:34;1.20;99.90
16511;DHT22;8368;48.772;8.754;2024-03-08T00:57:01;1.20;99.90
16511;DHT22;8368;48.772;8.754;2024-03-08T00:59:28;1.20;99.90
16511;DHT22;8368;48.772;8.754;2024-03-08T01:01:54;1.20;99.90
16511;DHT22;8368;48.772;8.754;2024-03-08T01:04:20;1.20;99.90
16511;DHT22;8368;48.772;8.754;2024-03-08T01:06:46;1.30;99.90
16511;DHT22;8368;48.772;8.754;2024-03-08T01:09:13;1.20;99.90
16511;DHT22;8368;48.772;8.754;2024-03-08T01:11:38;1.20;99.90
16511;DHT22;8368;48.772;8.754;2024-03-08T01:14:04;1.20;99.90
16511;DHT22;8368;48.772;8.754;2024-03-08T01:16:29;1.20;99.90
16511;DHT22;8368;48.772;8.754;2024-03-08T01:18:55;1.10;99.90
16511;DHT22;8368;48.772;8.754;2024-03-08T01:21:20;1.00;99.90
16511;DHT22;8368;48.772;8.754;2024-03-08T01:23:47;1.00;99.90
16511;DHT22;8368;48.772;8.754;2024-03-08T01:26:13;0.90;99.90
16511;DHT22;8368;48.772;8.754;2024-03-08T01:28:40;0.80;99.90
16511;DHT22;8368;48.772;8.754;2024-03-08T01:31:05;0.80;99.90
16511;DHT22;8368;48.772;8.754;2024-03-08T01:33:31;0.80;99.90
16511;DHT22;8368;48.772;8.754;2024-03-08T01:35:57;0.70;99.90
16511;DHT22;8368;48.772;8.754;2024-03-08T01:38:23;0.70;99.90
16511;DHT22;8368;48.772;8.754;2024-03-08T01:40:49;0.60;99.90
16511;DHT22;8368;48.772;8.754;2024-03-08T01:43:24;0.60;99.90
16511;DHT22;8368;48.772;8.754;2024-03-08T01:45:52;0.60;99.90
16511;DHT22;8368;48.772;8.754;2024-03-08T01:48:18;0.50;99.90
16511;DHT22;8368;48.772;8.754;2024-03-08T01:50:45;0.50;99.90
16511;DHT22;8368;48.772;8.754;2024-03-08T01:53:11;0.50;99.90
16511;DHT22;8368;48.772;8.754;2024-03-08T01:55:38;0.40;99.90
16511;DHT22;8368;48.772;8.754;2024-03-08T01:58:09;0.40;99.90
16511;DHT22;8368;48.772;8.754;2024-03-08T02:00:36;0.40;99.90
16511;DHT22;8368;48.772;8.754;2024-03-08T02:03:02;0.30;99.90
16511;DHT22;8368;48.772;8.754;2024-03-08T02:05:28;0.20;99.90
16511;DHT22;8368;48.772;8.754;2024-03-08T02:07:54;0.20;99.90
16511;DHT22;8368;48.772;8.754;2024-03-08T02:10:19;0.10;99.90
16511;DHT22;8368;48.772;8.754;2024-03-08T02:12:46;0.10;99.90
16511;DHT22;8368;48.772;8.754;2024-03-08T02:15:13;0.10;99.90
16511;DHT22;8368;48.772;8.754;2024-03-08T02:17:38;0.00;99.90
16511;DHT22;8368;48.772;8.754;2024-03-08T02:20:04;0.00;99.90
16511;DHT22;8368;48.772;8.754;2024-03-08T02:22:30;-0.10;99.90
16511;DHT22;8368;48.772;8.754;2024-03-08T02:24:58;-0.10;99.90
16511;DHT22;8368;48.772;8.754;2024-03-08T02:27:26;-0.20;99.90
16511;DHT22;8368;48.772;8.754;2024-03-08T02:29:55;-0.20;99.90
16511;DHT22;8368;48.772;8.754;2024-03-08T02:32:21;-0.20;99.90
16511;DHT22;8368;48.772;8.754;2024-03-08T02:34:47;-0.20;99.90
16511;DHT22;8368;48.772;8.754;2024-03-08T02:37:13;-0.20;99.90
16511;DHT22;8368;48.772;8.754;2024-03-08T02:39:38;-0.20;99.90
16511;DHT22;8368;48.772;8.754;2024-03-08T02:42:04;-0.20;99.90
16511;DHT22;8368;48.772;8.754;2024-03-08T02:44:30;-0.20;99.90
16511;DHT22;8368;48.772;8.754;2024-03-08T02:46:55;-0.30;99.90
16511;DHT22;8368;48.772;8.754;2024-03-08T02:49:21;-0.30;99.90
16511;DHT22;8368;48.772;8.754;2024-03-08T02:51:46;-0.30;99.90
16511;DHT22;8368;48.772;8.754;2024-03-08T02:54:12;-0.30;99.90
16511;DHT22;8368;48.772;8.754;2024-03-08T02:56:38;-0.30;99.90
16511;DHT22;8368;48.772;8.754;2024-03-08T02:59:03;-0.40;99.90
16511;DHT22;8368;48.772;8.754;2024-03-08T03:01:29;-0.40;99.90
16511;DHT22;8368;48.772;8.754;2024-03-08T03:03:54;-0.40;99.90
16511;DHT22;8368;48.772;8.754;2024-03-08T03:06:20;-0.40;99.90
16511;DHT22;8368;48.772;8.754;2024-03-08T03:08:46;-0.40;99.90
16511;DHT22;8368;48.772;8.754;2024-03-08T03:11:12;-0.40;99.90
16511;DHT22;8368;48.772;8.754;2024-03-08T03:13:39;-0.40;99.90
16511;DHT22;8368;48.772;8.754;2024-03-08T03:16:05;-0.30;99.90
16511;DHT22;8368;48.772;8.754;2024-03-08T03:18:30;-0.30;99.90
16511;DHT22;8368;48.772;8.754;2024-03-08T03:20:58;-0.30;99.90
16511;DHT22;8368;48.772;8.754;2024-03-08T03:23:24;-0.40;99.90
16511;DHT22;8368;48.772;8.754;2024-03-08T03:25:51;-0.40;99.90
16511;DHT22;8368;48.772;8.754;2024-03-08T03:28:17;-0.50;99.90
16511;DHT22;8368;48.772;8.754;2024-03-08T03:30:45;-0.50;99.90
16511;DHT22;8368;48.772;8.754;2024-03-08T03:33:12;-0.50;99.90
16511;DHT22;8368;48.772;8.754;2024-03-08T03:35:38;-0.50;99.90
16511;DHT22;8368;48.772;8.754;2024-03-08T03:38:04;-0.50;99.90
16511;DHT22;8368;48.772;8.754;2024-03-08T03:40:30;-0.50;99.90
16511;DHT22;8368;48.772;8.754;2024-03-08T03:42:56;-0.50;99.90
16511;DHT22;8368;48.772;8.754;2024-03-08T03:45:22;-0.50;99.90
16511;DHT22;8368;48.772;8.754;2024-03-08T03:47:48;-0.60;99.90
16511;DHT22;8368;48.772;8.754;2024-03-08T03:50:14;-0.60;99.90
16511;DHT22;8368;48.772;8.754;2024-03-08T03:52:39;-0.60;99.90
16511;DHT22;8368;48.772;8.754;2024-03-08T03:55:05;-0.60;99.90
16511;DHT22;8368;48.772;8.754;2024-03-08T03:57:31;-0.60;99.90
16511;DHT22;8368;48.772;8.754;2024-03-08T03:59:57;-0.60;99.90
16511;DHT22;8368;48.772;8.754;2024-03-08T04:02:24;-0.60;99.90
16511;DHT22;8368;48.772;8.754;2024-03-08T04:04:52;-0.60;99.90
16511;DHT22;8368;48.772;8.754;2024-03-08T04:07:17;-0.60;99.90
16511;DHT22;8368;48.772;8.754;2024-03-08T04:09:43;-0.60;99.90
16511;DHT22;8368;48.772;8.754;2024-03-08T04:12:08;-0.60;99.90
16511;DHT22;8368;48.772;8.754;2024-03-08T04:14:35;-0.60;99.90
16511;DHT22;8368;48.772;8.754;2024-03-08T04:17:01;-0.60;99.90
16511;DHT22;8368;48.772;8.754;2024-03-08T04:19:27;-0.60;99.90
16511;DHT22;8368;48.772;8.754;2024-03-08T04:21:53;-0.60;99.90
16511;DHT22;8368;48.772;8.754;2024-03-08T04:24:19;-0.70;99.90
16511;DHT22;8368;48.772;8.754;2024-03-08T04:26:46;-0.70;99.90
16511;DHT22;8368;48.772;8.754;2024-03-08T04:29:12;-0.70;99.90
16511;DHT22;8368;48.772;8.754;2024-03-08T04:31:40;-0.70;99.90
16511;DHT22;8368;48.772;8.754;2024-03-08T04:34:05;-0.70;99.90
16511;DHT22;8368;48.772;8.754;2024-03-08T04:36:31;-0.70;99.90
16511;DHT22;8368;48.772;8.754;2024-03-08T04:38:56;-0.70;99.90
16511;DHT22;8368;48.772;8.754;2024-03-08T04:41:22;-0.80;99.90
16511;DHT22;8368;48.772;8.754;2024-03-08T04:43:48;-0.80;99.90
16511;DHT22;8368;48.772;8.754;2024-03-08T04:46:14;-0.80;99.90
16511;DHT22;8368;48.772;8.754;2024-03-08T04:48:40;-0.80;99.90
16511;DHT22;8368;48.772;8.754;2024-03-08T04:51:08;-0.70;99.90
16511;DHT22;8368;48.772;8.754;2024-03-08T04:53:33;-0.80;99.90
16511;DHT22;8368;48.772;8.754;2024-03-08T04:55:59;-0.80;99.90
16511;DHT22;8368;48.772;8.754;2024-03-08T04:58:25;-0.80;99.90
16511;DHT22;8368;48.772;8.754;2024-03-08T05:00:51;-0.90;99.90
16511;DHT22;8368;48.772;8.754;2024-03-08T05:03:16;-0.80;99.90
16511;DHT22;8368;48.772;8.754;2024-03-08T05:05:42;-0.90;99.90
16511;DHT22;8368;48.772;8.754;2024-03-08T05:08:07;-0.90;99.90
16511;DHT22;8368;48.772;8.754;2024-03-08T05:10:33;-0.90;99.90
16511;DHT22;8368;48.772;8.754;2024-03-08T05:12:58;-0.90;99.90
16511;DHT22;8368;48.772;8.754;2024-03-08T05:15:24;-1.00;99.90
16511;DHT22;8368;48.772;8.754;2024-03-08T05:17:49;-0.90;99.90
16511;DHT22;8368;48.772;8.754;2024-03-08T05:20:15;-1.00;99.90
16511;DHT22;8368;48.772;8.754;2024-03-08T05:22:42;-0.90;99.90
16511;DHT22;8368;48.772;8.754;2024-03-08T05:25:08;-0.90;99.90
16511;DHT22;8368;48.772;8.754;2024-03-08T05:27:35;-0.90;99.90
16511;DHT22;8368;48.772;8.754;2024-03-08T05:30:02;-0.90;99.90
16511;DHT22;8368;48.772;8.754;2024-03-08T05:32:29;-0.90;99.90
16511;DHT22;8368;48.772;8.754;2024-03-08T05:34:55;-1.00;99.90
16511;DHT22;8368;48.772;8.754;2024-03-08T05:37:20;-1.00;99.90
16511;DHT22;8368;48.772;8.754;2024-03-08T05:39:46;-1.00;99.90
16511;DHT22;8368;48.772;8.754;2024-03-08T05:42:11;-1.00;99.90
16511;DHT22;8368;48.772;8.754;2024-03-08T05:44:37;-1.10;99.90
16511;DHT22;8368;48.772;8.754;2024-03-08T05:47:02;-1.00;99.90
16511;DHT22;8368;48.772;8.754;2024-03-08T05:49:28;-1.00;99.90
16511;DHT22;8368;48.772;8.754;2024-03-08T05:51:53;-1.10;99.90
16511;DHT22;8368;48.772;8.754;2024-03-08T05:54:19;-1.10;99.90
16511;DHT22;8368;48.772;8.754;2024-03-08T05:56:47;-1.10;99.90
16511;DHT22;8368;48.772;8.754;2024-03-08T05:59:13;-1.00;99.90
16511;DHT22;8368;48.772;8.754;2024-03-08T06:01:38;-1.00;99.90
16511;DHT22;8368;48.772;8.754;2024-03-08T06:04:06;-1.00;99.90
16511;DHT22;8368;48.772;8.754;2024-03-08T06:06:32;-1.00;99.90
16511;DHT22;8368;48.772;8.754;2024-03-08T06:08:58;-1.00;99.90
16511;DHT22;8368;48.772;8.754;2024-03-08T06:11:25;-1.10;99.90
16511;DHT22;8368;48.772;8.754;2024-03-08T06:13:52;-1.10;99.90
16511;DHT22;8368;48.772;8.754;2024-03-08T06:16:25;-1.10;99.90
16511;DHT22;8368;48.772;8.754;2024-03-08T06:18:55;-1.10;99.90
16511;DHT22;8368;48.772;8.754;2024-03-08T06:21:20;-1.10;99.90
16511;DHT22;8368;48.772;8.754;2024-03-08T06:23:48;-1.10;99.90
16511;DHT22;8368;48.772;8.754;2024-03-08T06:26:13;-1.00;99.90
16511;DHT22;8368;48.772;8.754;2024-03-08T06:28:39;-0.90;99.90
16511;DHT22;8368;48.772;8.754;2024-03-08T06:31:04;-0.90;99.90
16511;DHT22;8368;48.772;8.754;2024-03-08T06:33:30;-0.80;99.90
16511;DHT22;8368;48.772;8.754;2024-03-08T06:35:57;-0.70;99.90
16511;DHT22;8368;48.772;8.754;2024-03-08T06:38:26;-0.60;99.90
16511;DHT22;8368;48.772;8.754;2024-03-08T06:40:52;-0.50;99.90
16511;DHT22;8368;48.772;8.754;2024-03-08T06:43:19;-0.30;99.90
16511;DHT22;8368;48.772;8.754;2024-03-08T06:45:45;-0.20;99.90
16511;DHT22;8368;48.772;8.754;2024-03-08T06:48:17;0.00;99.90
16511;DHT22;8368;48.772;8.754;2024-03-08T06:50:44;0.20;99.90
16511;DHT22;8368;48.772;8.754;2024-03-08T06:53:10;0.30;99.90
16511;DHT22;8368;48.772;8.754;2024-03-08T06:55:36;0.40;99.90
16511;DHT22;8368;48.772;8.754;2024-03-08T06:58:02;0.40;99.90
16511;DHT22;8368;48.772;8.754;2024-03-08T07:00:27;0.50;99.90
16511;DHT22;8368;48.772;8.754;2024-03-08T07:02:56;0.60;99.90
16511;DHT22;8368;48.772;8.754;2024-03-08T07:05:22;0.70;99.90
16511;DHT22;8368;48.772;8.754;2024-03-08T07:07:49;0.80;99.90
16511;DHT22;8368;48.772;8.754;2024-03-08T07:10:16;0.90;99.90
16511;DHT22;8368;48.772;8.754;2024-03-08T07:12:42;1.00;99.90
16511;DHT22;8368;48.772;8.754;2024-03-08T07:15:08;1.10;99.90
16511;DHT22;8368;48.772;8.754;2024-03-08T07:17:39;1.20;99.90
16511;DHT22;8368;48.772;8.754;2024-03-08T07:20:05;1.20;99.90
16511;DHT22;8368;48.772;8.754;2024-03-08T07:22:36;1.30;99.90
16511;DHT22;8368;48.772;8.754;2024-03-08T07:25:02;1.30;99.90
16511;DHT22;8368;48.772;8.754;2024-03-08T07:27:34;1.40;99.90
16511;DHT22;8368;48.772;8.754;2024-03-08T07:30:03;1.40;99.90
16511;DHT22;8368;48.772;8.754;2024-03-08T07:32:28;1.40;99.90
16511;DHT22;8368;48.772;8.754;2024-03-08T07:34:55;1.50;99.90
16511;DHT22;8368;48.772;8.754;2024-03-08T07:37:21;1.50;99.90
16511;DHT22;8368;48.772;8.754;2024-03-08T07:39:47;1.50;99.90
16511;DHT22;8368;48.772;8.754;2024-03-08T07:42:12;1.60;99.90
16511;DHT22;8368;48.772;8.754;2024-03-08T07:44:38;1.70;99.90
16511;DHT22;8368;48.772;8.754;2024-03-08T07:47:04;1.70;99.90
16511;DHT22;8368;48.772;8.754;2024-03-08T07:49:30;1.80;99.90
16511;DHT22;8368;48.772;8.754;2024-03-08T07:51:59;1.80;99.90
16511;DHT22;8368;48.772;8.754;2024-03-08T07:54:24;1.90;99.90
16511;DHT22;8368;48.772;8.754;2024-03-08T07:56:51;2.00;99.90
16511;DHT22;8368;48.772;8.754;2024-03-08T07:59:18;2.00;99.90
16511;DHT22;8368;48.772;8.754;2024-03-08T08:01:43;2.00;99.90
16511;DHT22;8368;48.772;8.754;2024-03-08T08:04:10;2.20;99.90
16511;DHT22;8368;48.772;8.754;2024-03-08T08:06:38;2.20;99.90
16511;DHT22;8368;48.772;8.754;2024-03-08T08:09:06;2.30;99.90
16511;DHT22;8368;48.772;8.754;2024-03-08T08:11:42;2.30;99.90
16511;DHT22;8368;48.772;8.754;2024-03-08T08:14:10;2.30;99.90
16511;DHT22;8368;48.772;8.754;2024-03-08T08:16:36;2.40;99.90
16511;DHT22;8368;48.772;8.754;2024-03-08T08:19:03;2.30;99.90
16511;DHT22;8368;48.772;8.754;2024-03-08T08:21:34;2.30;99.90
16511;DHT22;8368;48.772;8.754;2024-03-08T08:24:00;2.40;99.90
16511;DHT22;8368;48.772;8.754;2024-03-08T08:26:25;2.40;99.90
16511;DHT22;8368;48.772;8.754;2024-03-08T08:28:51;2.50;99.90
16511;DHT22;8368;48.772;8.754;2024-03-08T08:31:18;2.50;99.90
16511;DHT22;8368;48.772;8.754;2024-03-08T08:33:44;2.50;99.90
16511;DHT22;8368;48.772;8.754;2024-03-08T08:36:10;2.60;99.90
16511;DHT22;8368;48.772;8.754;2024-03-08T08:38:35;2.60;99.90
16511;DHT22;8368;48.772;8.754;2024-03-08T08:41:01;2.50;99.90
16511;DHT22;8368;48.772;8.754;2024-03-08T08:43:27;2.50;99.90
16511;DHT22;8368;48.772;8.754;2024-03-08T08:45:53;2.50;99.90
16511;DHT22;8368;48.772;8.754;2024-03-08T08:48:20;2.50;99.90
16511;DHT22;8368;48.772;8.754;2024-03-08T08:53:15;2.60;99.90
16511;DHT22;8368;48.772;8.754;2024-03-08T08:55:42;2.70;99.90
16511;DHT22;8368;48.772;8.754;2024-03-08T08:58:08;2.60;99.90
16511;DHT22;8368;48.772;8.754;2024-03-08T09:00:33;2.70;99.90
16511;DHT22;8368;48.772;8.754;2024-03-08T09:03:00;2.60;99.90
16511;DHT22;8368;48.772;8.754;2024-03-08T09:05:25;2.70;99.90
16511;DHT22;8368;48.772;8.754;2024-03-08T09:07:51;2.70;99.90
16511;DHT22;8368;48.772;8.754;2024-03-08T09:10:18;2.80;99.90
16511;DHT22;8368;48.772;8.754;2024-03-08T09:12:44;2.80;99.90
16511;DHT22;8368;48.772;8.754;2024-03-08T09:15:10;2.90;99.90
16511;DHT22;8368;48.772;8.754;2024-03-08T09:17:38;2.90;99.90
16511;DHT22;8368;48.772;8.754;2024-03-08T09:20:07;3.00;99.90
16511;DHT22;8368;48.772;8.754;2024-03-08T09:22:34;3.00;99.90
16511;DHT22;8368;48.772;8.754;2024-03-08T09:25:00;3.10;99.90
16511;DHT22;8368;48.772;8.754;2024-03-08T09:27:25;3.10;99.90
16511;DHT22;8368;48.772;8.754;2024-03-08T09:29:51;3.10;99.90
16511;DHT22;8368;48.772;8.754;2024-03-08T09:32:16;3.10;99.90
16511;DHT22;8368;48.772;8.754;2024-03-08T09:34:42;3.00;99.90
16511;DHT22;8368;48.772;8.754;2024-03-08T09:37:08;3.10;99.90
16511;DHT22;8368;48.772;8.754;2024-03-08T09:39:34;3.10;99.90
16511;DHT22;8368;48.772;8.754;2024-03-08T09:42:01;3.10;99.90
16511;DHT22;8368;48.772;8.754;2024-03-08T09:44:26;3.10;99.90
16511;DHT22;8368;48.772;8.754;2024-03-08T09:46:54;3.10;99.90
16511;DHT22;8368;48.772;8.754;2024-03-08T09:49:20;3.20;99.90
16511;DHT22;8368;48.772;8.754;2024-03-08T09:51:46;3.20;99.90
16511;DHT22;8368;48.772;8.754;2024-03-08T09:54:12;3.10;99.90
16511;DHT22;8368;48.772;8.754;2024-03-08T09:56:39;3.20;99.90
16511;DHT22;8368;48.772;8.754;2024-03-08T09:59:07;3.20;99.90
16511;DHT22;8368;48.772;8.754;2024-03-08T10:01:51;3.30;99.90
16511;DHT22;8368;48.772;8.754;2024-03-08T10:04:17;3.40;99.90
16511;DHT22;8368;48.772;8.754;2024-03-08T10:06:44;3.50;99.90
16511;DHT22;8368;48.772;8.754;2024-03-08T10:09:12;3.60;99.90
16511;DHT22;8368;48.772;8.754;2024-03-08T10:11:40;3.70;99.90
16511;DHT22;8368;48.772;8.754;2024-03-08T10:14:05;3.70;99.90
16511;DHT22;8368;48.772;8.754;2024-03-08T10:16:32;3.70;99.90
16511;DHT22;8368;48.772;8.754;2024-03-08T10:18:59;3.80;99.90
16511;DHT22;8368;48.772;8.754;2024-03-08T10:21:26;3.80;99.90
16511;DHT22;8368;48.772;8.754;2024-03-08T10:23:51;3.90;99.90
16511;DHT22;8368;48.772;8.754;2024-03-08T10:26:17;4.00;99.90
16511;DHT22;8368;48.772;8.754;2024-03-08T10:28:45;3.90;99.90
16511;DHT22;8368;48.772;8.754;2024-03-08T10:31:13;4.00;99.90
16511;DHT22;8368;48.772;8.754;2024-03-08T10:33:40;4.00;99.90
16511;DHT22;8368;48.772;8.754;2024-03-08T10:36:08;4.20;99.90
16511;DHT22;8368;48.772;8.754;2024-03-08T10:38:36;4.20;99.90
16511;DHT22;8368;48.772;8.754;2024-03-08T10:41:03;4.20;99.90
16511;DHT22;8368;48.772;8.754;2024-03-08T10:43:33;4.10;99.90
16511;DHT22;8368;48.772;8.754;2024-03-08T10:48:55;4.30;99.90
16511;DHT22;8368;48.772;8.754;2024-03-08T10:51:24;4.20;99.90
16511;DHT22;8368;48.772;8.754;2024-03-08T10:53:52;4.20;99.90
16511;DHT22;8368;48.772;8.754;2024-03-08T10:56:19;4.40;99.90
16511;DHT22;8368;48.772;8.754;2024-03-08T10:58:46;4.40;99.90
16511;DHT22;8368;48.772;8.754;2024-03-08T11:01:12;4.50;99.90
16511;DHT22;8368;48.772;8.754;2024-03-08T11:09:08;4.50;99.90
16511;DHT22;8368;48.772;8.754;2024-03-08T11:11:42;4.50;99.90
16511;DHT22;8368;48.772;8.754;2024-03-08T11:14:43;4.60;99.90
16511;DHT22;8368;48.772;8.754;2024-03-08T11:17:09;4.50;99.90
16511;DHT22;8368;48.772;8.754;2024-03-08T11:19:35;4.60;99.90
16511;DHT22;8368;48.772;8.754;2024-03-08T11:22:02;4.70;99.90
16511;DHT22;8368;48.772;8.754;2024-03-08T11:24:28;4.60;99.90
16511;DHT22;8368;48.772;8.754;2024-03-08T11:27:03;4.70;99.90
16511;DHT22;8368;48.772;8.754;2024-03-08T11:32:14;4.60;99.90
16511;DHT22;8368;48.772;8.754;2024-03-08T11:34:48;4.60;99.90
16511;DHT22;8368;48.772;8.754;2024-03-08T11:37:18;4.80;99.90
16511;DHT22;8368;48.772;8.754;2024-03-08T11:39:47;4.80;99.90
16511;DHT22;8368;48.772;8.754;2024-03-08T11:42:17;4.90;99.90
16511;DHT22;8368;48.772;8.754;2024-03-08T11:44:44;5.00;99.90
16511;DHT22;8368;48.772;8.754;2024-03-08T11:47:10;5.00;99.90
16511;DHT22;8368;48.772;8.754;2024-03-08T11:49:36;5.10;99.90
16511;DHT22;8368;48.772;8.754;2024-03-08T11:52:02;5.30;99.90
16511;DHT22;8368;48.772;8.754;2024-03-08T11:54:29;5.50;99.90
16511;DHT22;8368;48.772;8.754;2024-03-08T11:56:56;5.60;99.90
16511;DHT22;8368;48.772;8.754;2024-03-08T11:59:27;5.70;99.90
16511;DHT22;8368;48.772;8.754;2024-03-08T12:02:01;5.70;99.90
16511;DHT22;8368;48.772;8.754;2024-03-08T12:04:27;5.80;99.90
16511;DHT22;8368;48.772;8.754;2024-03-08T12:06:53;5.70;99.90
16511;DHT22;8368;48.772;8.754;2024-03-08T12:09:18;5.80;99.90
16511;DHT22;8368;48.772;8.754;2024-03-08T12:11:47;5.90;99.90
16511;DHT22;8368;48.772;8.754;2024-03-08T12:14:13;6.00;99.90
16511;DHT22;8368;48.772;8.754;2024-03-08T12:16:38;6.10;99.90
16511;DHT22;8368;48.772;8.754;2024-03-08T12:19:04;6.10;99.90
16511;DHT22;8368;48.772;8.754;2024-03-08T12:21:31;6.20;99.90
16511;DHT22;8368;48.772;8.754;2024-03-08T12:24:05;6.20;99.90
16511;DHT22;8368;48.772;8.754;2024-03-08T12:26:35;6.20;99.90
16511;DHT22;8368;48.772;8.754;2024-03-08T12:29:15;6.10;99.90
16511;DHT22;8368;48.772;8.754;2024-03-08T12:31:46;6.20;99.90
16511;DHT22;8368;48.772;8.754;2024-03-08T12:34:13;6.30;99.90
16511;DHT22;8368;48.772;8.754;2024-03-08T12:36:49;6.30;99.90
16511;DHT22;8368;48.772;8.754;2024-03-08T12:39:18;6.40;99.90
16511;DHT22;8368;48.772;8.754;2024-03-08T12:42:03;6.40;99.90
16511;DHT22;8368;48.772;8.754;2024-03-08T12:44:29;6.50;99.90
16511;DHT22;8368;48.772;8.754;2024-03-08T12:46:54;6.80;99.90
16511;DHT22;8368;48.772;8.754;2024-03-08T12:49:20;7.10;99.90
16511;DHT22;8368;48.772;8.754;2024-03-08T12:51:49;7.40;99.90
16511;DHT22;8368;48.772;8.754;2024-03-08T12:54:15;7.80;99.90
16511;DHT22;8368;48.772;8.754;2024-03-08T12:56:40;7.90;99.90
16511;DHT22;8368;48.772;8.754;2024-03-08T12:59:07;8.00;99.90
16511;DHT22;8368;48.772;8.754;2024-03-08T13:01:34;7.90;99.90
16511;DHT22;8368;48.772;8.754;2024-03-08T13:04:00;7.80;99.90
16511;DHT22;8368;48.772;8.754;2024-03-08T13:06:28;7.70;99.90
16511;DHT22;8368;48.772;8.754;2024-03-08T13:08:55;7.60;99.90
16511;DHT22;8368;48.772;8.754;2024-03-08T13:11:21;7.50;99.90
16511;DHT22;8368;48.772;8.754;2024-03-08T13:13:47;7.50;99.90
16511;DHT22;8368;48.772;8.754;2024-03-08T13:16:13;7.60;99.90
16511;DHT22;8368;48.772;8.754;2024-03-08T13:18:43;7.70;99.90
16511;DHT22;8368;48.772;8.754;2024-03-08T13:21:09;7.70;99.90
16511;DHT22;8368;48.772;8.754;2024-03-08T13:23:36;7.50;99.90
16511;DHT22;8368;48.772;8.754;2024-03-08T13:26:09;7.70;99.90
16511;DHT22;8368;48.772;8.754;2024-03-08T13:28:43;8.10;99.90
16511;DHT22;8368;48.772;8.754;2024-03-08T13:31:09;8.70;99.90
16511;DHT22;8368;48.772;8.754;2024-03-08T13:33:36;9.50;99.90
16511;DHT22;8368;48.772;8.754;2024-03-08T13:36:05;10.40;99.90
16511;DHT22;8368;48.772;8.754;2024-03-08T13:38:34;11.30;99.90
16511;DHT22;8368;48.772;8.754;2024-03-08T13:41:01;11.80;99.90
16511;DHT22;8368;48.772;8.754;2024-03-08T13:43:28;12.10;99.90
16511;DHT22;8368;48.772;8.754;2024-03-08T13:45:54;12.30;99.90
16511;DHT22;8368;48.772;8.754;2024-03-08T13:48:20;12.20;99.90
16511;DHT22;8368;48.772;8.754;2024-03-08T13:50:48;12.30;99.90
16511;DHT22;8368;48.772;8.754;2024-03-08T13:53:14;11.90;99.90
16511;DHT22;8368;48.772;8.754;2024-03-08T13:55:40;11.60;99.90
16511;DHT22;8368;48.772;8.754;2024-03-08T13:58:06;11.60;99.90
16511;DHT22;8368;48.772;8.754;2024-03-08T14:00:35;11.40;99.90
16511;DHT22;8368;48.772;8.754;2024-03-08T14:03:01;11.00;99.90
16511;DHT22;8368;48.772;8.754;2024-03-08T14:05:31;11.00;99.90
16511;DHT22;8368;48.772;8.754;2024-03-08T14:08:01;10.90;99.90
16511;DHT22;8368;48.772;8.754;2024-03-08T14:10:29;11.30;99.90
16511;DHT22;8368;48.772;8.754;2024-03-08T14:12:57;11.20;99.90
16511;DHT22;8368;48.772;8.754;2024-03-08T14:15:22;11.20;99.90
16511;DHT22;8368;48.772;8.754;2024-03-08T14:17:56;11.10;99.90
16511;DHT22;8368;48.772;8.754;2024-03-08T14:20:23;11.20;99.90
16511;DHT22;8368;48.772;8.754;2024-03-08T14:22:55;10.80;99.90
16511;DHT22;8368;48.772;8.754;2024-03-08T14:25:21;10.60;99.90
16511;DHT22;8368;48.772;8.754;2024-03-08T14:27:49;10.00;99.90
16511;DHT22;8368;48.772;8.754;2024-03-08T14:30:15;9.50;99.90
16511;DHT22;8368;48.772;8.754;2024-03-08T14:33:07;9.10;99.90
16511;DHT22;8368;48.772;8.754;2024-03-08T14:35:37;8.80;99.90
16511;DHT22;8368;48.772;8.754;2024-03-08T14:38:03;8.40;99.90
16511;DHT22;8368;48.772;8.754;2024-03-08T14:40:28;8.30;99.90
16511;DHT22;8368;48.772;8.754;2024-03-08T14:42:56;8.20;99.90
16511;DHT22;8368;48.772;8.754;2024-03-08T14:45:21;8.00;99.90
16511;DHT22;8368;48.772;8.754;2024-03-08T14:47:49;8.00;99.90
16511;DHT22;8368;48.772;8.754;2024-03-08T14:50:22;7.80;99.90
16511;DHT22;8368;48.772;8.754;2024-03-08T14:52:48;7.80;99.90
16511;DHT22;8368;48.772;8.754;2024-03-08T14:55:15;7.80;99.90
16511;DHT22;8368;48.772;8.754;2024-03-08T14:57:43;7.70;99.90
16511;DHT22;8368;48.772;8.754;2024-03-08T15:00:14;7.60;99.90
16511;DHT22;8368;48.772;8.754;2024-03-08T15:02:44;7.60;99.90
16511;DHT22;8368;48.772;8.754;2024-03-08T15:05:10;7.60;99.90
16511;DHT22;8368;48.772;8.754;2024-03-08T15:07:39;7.50;99.90
16511;DHT22;8368;48.772;8.754;2024-03-08T15:10:07;7.40;99.90
16511;DHT22;8368;48.772;8.754;2024-03-08T15:12:36;7.40;99.90
16511;DHT22;8368;48.772;8.754;2024-03-08T15:15:02;7.50;99.90
16511;DHT22;8368;48.772;8.754;2024-03-08T15:17:33;7.50;99.90
16511;DHT22;8368;48.772;8.754;2024-03-08T15:20:00;7.40;99.90
16511;DHT22;8368;48.772;8.754;2024-03-08T15:22:26;7.40;99.90
16511;DHT22;8368;48.772;8.754;2024-03-08T15:24:52;7.40;99.90
16511;DHT22;8368;48.772;8.754;2024-03-08T15:27:18;7.40;99.90
16511;DHT22;8368;48.772;8.754;2024-03-08T15:29:44;7.40;99.90
16511;DHT22;8368;48.772;8.754;2024-03-08T15:32:13;7.30;99.90
16511;DHT22;8368;48.772;8.754;2024-03-08T15:34:45;7.30;99.90
16511;DHT22;8368;48.772;8.754;2024-03-08T15:37:10;7.30;99.90
16511;DHT22;8368;48.772;8.754;2024-03-08T15:39:40;7.20;99.90
16511;DHT22;8368;48.772;8.754;2024-03-08T15:42:06;7.10;99.90
16511;DHT22;8368;48.772;8.754;2024-03-08T15:44:32;7.10;99.90
16511;DHT22;8368;48.772;8.754;2024-03-08T15:46:57;7.10;99.90
16511;DHT22;8368;48.772;8.754;2024-03-08T15:49:23;7.00;99.90
16511;DHT22;8368;48.772;8.754;2024-03-08T15:51:51;7.00;99.90
16511;DHT22;8368;48.772;8.754;2024-03-08T15:54:17;6.90;99.90
16511;DHT22;8368;48.772;8.754;2024-03-08T15:56:42;6.80;99.90
16511;DHT22;8368;48.772;8.754;2024-03-08T15:59:08;6.80;99.90
16511;DHT22;8368;48.772;8.754;2024-03-08T16:01:33;6.80;99.90
16511;DHT22;8368;48.772;8.754;2024-03-08T16:03:59;6.70;99.90
16511;DHT22;8368;48.772;8.754;2024-03-08T16:06:25;6.80;99.90
16511;DHT22;8368;48.772;8.754;2024-03-08T16:08:50;6.70;99.90